createdAt,value
2019-02-27T00:01:49.941Z,8.64
2019-02-27T00:04:19.230Z,8.62
2019-02-27T00:06:48.650Z,8.61
2019-02-27T00:09:18.005Z,8.58
2019-02-27T00:11:47.348Z,8.53
2019-02-27T00:14:16.711Z,8.50
2019-02-27T00:16:46.050Z,8.48
2019-02-27T00:19:15.398Z,8.46
2019-02-27T00:21:44.751Z,8.44
2019-02-27T00:24:14.099Z,8.42
2019-02-27T00:26:43.434Z,8.41
2019-02-27T00:29:12.756Z,8.37
2019-02-27T00:31:45.121Z,8.36
2019-02-27T00:34:13.314Z,8.35
2019-02-27T00:36:44.819Z,8.34
2019-02-27T00:39:14.814Z,8.33
2019-02-27T00:41:46.026Z,8.31
2019-02-27T00:44:15.230Z,8.29
2019-02-27T00:46:47.076Z,8.27
2019-02-27T00:49:18.259Z,8.26
2019-02-27T00:51:47.587Z,8.27
2019-02-27T00:54:16.912Z,8.24
2019-02-27T00:56:46.259Z,8.24
2019-02-27T00:59:15.599Z,8.23
2019-02-27T01:01:47.295Z,8.22
2019-02-27T01:04:16.004Z,8.22
2019-02-27T01:06:47.458Z,8.21
2019-02-27T01:09:17.690Z,8.20
2019-02-27T01:11:51.446Z,8.19
2019-02-27T01:14:18.077Z,8.18
2019-02-27T01:16:47.699Z,8.17
2019-02-27T01:19:18.510Z,8.18
2019-02-27T01:21:47.839Z,8.18
2019-02-27T01:24:17.423Z,8.17
2019-02-27T01:26:47.383Z,8.14
2019-02-27T01:29:18.097Z,8.13
2019-02-27T01:31:47.808Z,8.12
2019-02-27T01:34:18.157Z,8.10
2019-02-27T01:36:47.476Z,8.08
2019-02-27T01:39:16.819Z,8.07
2019-02-27T01:41:46.177Z,8.02
2019-02-27T01:44:17.343Z,7.99
2019-02-27T01:46:46.777Z,7.96
2019-02-27T01:49:16.814Z,7.91
2019-02-27T01:51:46.384Z,7.88
2019-02-27T01:54:15.784Z,7.85
2019-02-27T01:56:45.130Z,7.81
2019-02-27T01:59:16.926Z,7.79
2019-02-27T02:01:46.643Z,7.76
2019-02-27T02:04:19.961Z,7.72
2019-02-27T02:06:47.205Z,7.68
2019-02-27T02:09:39.457Z,7.64
2019-02-27T02:12:12.619Z,7.64
2019-02-27T02:15:21.732Z,7.63
2019-02-27T02:18:32.193Z,7.61
2019-02-27T02:22:00.926Z,7.58
2019-02-27T02:25:25.080Z,7.55
2019-02-27T02:28:48.083Z,7.51
2019-02-27T02:31:52.514Z,7.47
2019-02-27T02:35:01.902Z,7.41
2019-02-27T02:38:15.097Z,7.38
2019-02-27T02:41:34.092Z,7.33
2019-02-27T02:44:32.544Z,7.30
2019-02-27T02:47:11.677Z,7.26
2019-02-27T02:50:08.320Z,7.22
2019-02-27T02:53:06.587Z,7.19
2019-02-27T02:56:03.306Z,7.16
2019-02-27T02:58:39.367Z,7.14
2019-02-27T03:01:36.142Z,7.12
2019-02-27T03:04:57.895Z,7.10
2019-02-27T03:08:12.035Z,7.07
2019-02-27T03:11:17.752Z,7.03
2019-02-27T03:14:16.866Z,7.01
2019-02-27T03:17:27.183Z,7.00
2019-02-27T03:20:36.086Z,6.99
2019-02-27T03:23:58.380Z,6.98
2019-02-27T03:27:17.558Z,6.93
2019-02-27T03:30:40.073Z,6.89
2019-02-27T03:33:53.511Z,6.87
2019-02-27T03:36:46.126Z,6.87
2019-02-27T03:39:49.083Z,6.86
2019-02-27T03:42:52.231Z,6.82
2019-02-27T03:45:50.913Z,6.82
2019-02-27T03:48:41.506Z,6.81
2019-02-27T03:51:46.043Z,6.80
2019-02-27T03:54:36.184Z,6.78
2019-02-27T03:57:54.893Z,6.75
2019-02-27T04:00:53.721Z,6.73
2019-02-27T04:04:17.457Z,6.70
2019-02-27T04:07:35.767Z,6.67
2019-02-27T04:10:05.237Z,6.64
2019-02-27T04:12:34.699Z,6.60
2019-02-27T04:15:06.150Z,6.59
2019-02-27T04:17:33.697Z,6.58
2019-02-27T04:20:03.026Z,6.57
2019-02-27T04:22:36.214Z,6.56
2019-02-27T04:25:03.417Z,6.54
2019-02-27T04:27:32.758Z,6.53
2019-02-27T04:30:02.103Z,6.51
2019-02-27T04:32:31.450Z,6.49
2019-02-27T04:35:00.785Z,6.51
2019-02-27T04:37:30.103Z,6.51
2019-02-27T04:39:59.548Z,6.52
2019-02-27T04:42:28.873Z,6.53
2019-02-27T04:44:58.217Z,6.53
2019-02-27T04:47:29.162Z,6.53
2019-02-27T04:49:58.638Z,6.52
2019-02-27T04:52:28.010Z,6.51
2019-02-27T04:54:57.381Z,6.50
2019-02-27T04:57:26.694Z,6.48
2019-02-27T04:59:57.711Z,6.46
2019-02-27T05:02:27.034Z,6.43
2019-02-27T05:04:56.377Z,6.40
2019-02-27T05:07:25.716Z,6.39
2019-02-27T05:09:55.153Z,6.35
2019-02-27T05:12:25.905Z,6.34
2019-02-27T05:14:55.210Z,6.33
2019-02-27T05:17:24.710Z,6.32
2019-02-27T05:19:54.012Z,6.30
2019-02-27T05:22:26.566Z,6.22
2019-02-27T05:24:54.546Z,6.19
2019-02-27T05:27:23.922Z,6.17
2019-02-27T05:29:53.238Z,6.18
2019-02-27T05:32:25.288Z,6.17
2019-02-27T05:34:53.631Z,6.15
2019-02-27T05:37:22.971Z,6.13
2019-02-27T05:39:53.403Z,6.13
2019-02-27T05:42:22.750Z,6.12
2019-02-27T05:44:55.503Z,6.07
2019-02-27T05:47:23.218Z,6.06
2019-02-27T05:49:52.704Z,6.04
2019-02-27T05:52:22.052Z,6.03
2019-02-27T05:54:51.406Z,6.01
2019-02-27T05:57:21.075Z,5.99
2019-02-27T05:59:51.782Z,5.98
2019-02-27T06:02:21.108Z,5.96
2019-02-27T06:04:50.473Z,5.96
2019-02-27T06:07:19.798Z,5.94
2019-02-27T06:09:49.240Z,5.90
2019-02-27T06:12:18.593Z,5.89
2019-02-27T06:14:47.902Z,5.88
2019-02-27T06:17:17.266Z,5.86
2019-02-27T06:19:47.662Z,5.85
2019-02-27T06:22:16.977Z,5.83
2019-02-27T06:24:46.407Z,5.82
2019-02-27T06:27:16.114Z,5.81
2019-02-27T06:29:45.429Z,5.79
2019-02-27T06:32:14.781Z,5.75
2019-02-27T06:34:44.119Z,5.74
2019-02-27T06:37:15.604Z,5.73
2019-02-27T06:39:44.833Z,5.72
2019-02-27T06:42:14.221Z,5.72
2019-02-27T06:44:43.550Z,5.69
2019-02-27T06:47:12.892Z,5.66
2019-02-27T06:49:42.227Z,5.62
2019-02-27T06:52:11.570Z,5.61
2019-02-27T06:54:40.949Z,5.60
2019-02-27T06:57:10.901Z,5.58
2019-02-27T06:59:40.287Z,5.57
2019-02-27T07:02:09.648Z,5.56
2019-02-27T07:04:39.479Z,5.55
2019-02-27T07:07:10.622Z,5.53
2019-02-27T07:09:39.943Z,5.49
2019-02-27T07:12:09.283Z,5.46
2019-02-27T07:14:39.102Z,5.48
2019-02-27T07:17:09.268Z,5.48
2019-02-27T07:19:38.713Z,5.49
2019-02-27T07:22:09.319Z,5.49
2019-02-27T07:24:39.331Z,5.49
2019-02-27T07:27:08.654Z,5.49
2019-02-27T07:29:38.004Z,5.46
2019-02-27T07:32:07.780Z,5.41
2019-02-27T07:34:37.216Z,5.37
2019-02-27T07:37:06.620Z,5.37
2019-02-27T07:39:36.173Z,5.41
2019-02-27T07:42:05.594Z,5.43
2019-02-27T07:44:35.839Z,5.45
2019-02-27T07:47:05.258Z,5.47
2019-02-27T07:49:34.839Z,5.50
2019-02-27T07:52:04.182Z,5.54
2019-02-27T07:54:33.521Z,5.55
2019-02-27T07:57:03.042Z,5.55
2019-02-27T07:59:32.607Z,5.57
2019-02-27T08:02:03.074Z,5.61
2019-02-27T08:04:32.702Z,5.65
2019-02-27T08:07:02.188Z,5.68
2019-02-27T08:09:31.568Z,5.72
2019-02-27T08:12:03.221Z,5.76
2019-02-27T08:14:36.960Z,5.79
2019-02-27T08:17:10.288Z,5.83
2019-02-27T08:19:34.940Z,5.86
2019-02-27T08:22:04.412Z,5.90
2019-02-27T08:24:33.880Z,5.93
2019-02-27T08:27:03.189Z,5.96
2019-02-27T08:29:32.645Z,6.01
2019-02-27T08:32:05.367Z,6.05
2019-02-27T08:34:34.462Z,6.08
2019-02-27T08:37:03.880Z,6.13
2019-02-27T08:39:33.219Z,6.19
2019-02-27T08:42:03.590Z,6.24
2019-02-27T08:44:33.472Z,6.30
2019-02-27T08:47:04.246Z,6.35
2019-02-27T08:49:33.723Z,6.40
2019-02-27T08:52:03.042Z,6.47
2019-02-27T08:54:33.103Z,6.52
2019-02-27T08:57:02.546Z,6.59
2019-02-27T08:59:31.867Z,6.66
2019-02-27T09:02:01.198Z,6.73
2019-02-27T09:04:30.519Z,6.78
2019-02-27T09:07:02.797Z,6.85
2019-02-27T09:09:30.911Z,6.92
2019-02-27T09:12:00.262Z,6.99
2019-02-27T09:14:29.586Z,7.08
2019-02-27T09:16:58.925Z,7.17
2019-02-27T09:19:28.257Z,7.24
2019-02-27T09:21:59.940Z,7.31
2019-02-27T09:24:30.430Z,7.39
2019-02-27T09:26:59.803Z,7.51
2019-02-27T09:29:29.126Z,7.61
2019-02-27T09:31:58.449Z,7.71
2019-02-27T09:34:27.827Z,7.81
2019-02-27T09:36:57.165Z,7.90
2019-02-27T09:39:30.702Z,7.99
2019-02-27T09:41:57.550Z,8.07
2019-02-27T09:44:26.901Z,8.15
2019-02-27T09:46:56.301Z,8.24
2019-02-27T09:49:25.666Z,8.31
2019-02-27T09:51:56.345Z,8.41
2019-02-27T09:54:26.077Z,8.47
2019-02-27T09:56:55.455Z,8.54
2019-02-27T09:59:24.786Z,8.59
2019-02-27T10:01:54.126Z,8.64
2019-02-27T10:04:25.952Z,8.70
2019-02-27T10:06:54.514Z,8.76
2019-02-27T10:09:23.872Z,8.82
2019-02-27T10:11:53.249Z,8.86
2019-02-27T10:14:22.577Z,8.89
2019-02-27T10:16:51.918Z,8.93
2019-02-27T10:19:21.278Z,8.97
2019-02-27T10:21:50.644Z,9.01
2019-02-27T10:24:19.971Z,9.06
2019-02-27T10:26:49.335Z,9.13
2019-02-27T10:29:19.094Z,9.17
2019-02-27T10:31:48.466Z,9.24
2019-02-27T10:34:18.306Z,9.31
2019-02-27T10:36:48.451Z,9.38
2019-02-27T10:39:17.889Z,9.45
2019-02-27T10:41:49.770Z,9.51
2019-02-27T10:44:18.311Z,9.56
2019-02-27T10:46:47.645Z,9.62
2019-02-27T10:49:21.426Z,9.69
2019-02-27T10:51:48.065Z,9.75
2019-02-27T10:54:17.394Z,9.80
2019-02-27T10:56:46.751Z,9.86
2019-02-27T10:59:16.101Z,9.93
2019-02-27T11:01:45.447Z,9.99
2019-02-27T11:04:15.393Z,10.03
2019-02-27T11:06:45.237Z,10.11
2019-02-27T11:09:26.490Z,10.19
2019-02-27T11:11:57.551Z,10.25
2019-02-27T11:14:31.627Z,10.32
2019-02-27T11:17:02.048Z,10.37
2019-02-27T11:19:29.137Z,10.43
2019-02-27T11:21:59.095Z,10.48
2019-02-27T11:24:28.431Z,10.54
2019-02-27T11:26:57.774Z,10.60
2019-02-27T11:29:27.144Z,10.66
2019-02-27T11:31:56.470Z,10.71
2019-02-27T11:34:25.827Z,10.79
2019-02-27T11:36:55.162Z,10.86
2019-02-27T11:39:24.519Z,10.94
2019-02-27T11:41:53.958Z,11.01
2019-02-27T11:44:23.284Z,11.09
2019-02-27T11:46:58.710Z,11.17
2019-02-27T11:49:23.697Z,11.24
2019-02-27T11:51:53.190Z,11.34
2019-02-27T11:54:23.288Z,11.46
2019-02-27T11:56:56.298Z,11.72
2019-02-27T11:59:23.735Z,11.72
2019-02-27T12:01:55.333Z,11.96
2019-02-27T12:04:24.174Z,11.96
2019-02-27T12:06:53.496Z,12.13
2019-02-27T12:09:22.856Z,12.13
2019-02-27T12:11:52.201Z,12.29
2019-02-27T12:14:21.589Z,12.38
2019-02-27T12:16:51.675Z,12.50
2019-02-27T12:19:21.769Z,12.50
2019-02-27T12:21:51.108Z,12.64
2019-02-27T12:24:20.462Z,12.78
2019-02-27T12:26:49.801Z,12.89
2019-02-27T12:29:19.191Z,13.09
2019-02-27T12:31:48.998Z,13.09
2019-02-27T12:34:18.379Z,13.27
2019-02-27T12:36:49.932Z,13.37
2019-02-27T12:39:18.809Z,13.60
2019-02-27T12:41:49.045Z,13.60
2019-02-27T12:44:18.417Z,13.85
2019-02-27T12:46:47.808Z,13.85
2019-02-27T12:49:19.985Z,13.95
2019-02-27T12:51:48.215Z,14.06
2019-02-27T12:54:17.587Z,14.16
2019-02-27T12:56:47.189Z,14.27
2019-02-27T12:59:16.558Z,14.37
2019-02-27T13:01:50.718Z,14.52
2019-02-27T13:04:19.807Z,14.63
2019-02-27T13:06:48.097Z,14.74
2019-02-27T13:09:17.446Z,14.82
2019-02-27T13:11:46.782Z,15.01
2019-02-27T13:14:16.151Z,15.01
2019-02-27T13:16:49.212Z,15.13
2019-02-27T13:19:16.608Z,15.24
2019-02-27T13:21:45.976Z,15.36
2019-02-27T13:24:16.002Z,15.47
2019-02-27T13:26:45.353Z,15.63
2019-02-27T13:29:14.694Z,15.73
2019-02-27T13:31:44.023Z,15.84
2019-02-27T13:34:13.893Z,16.11
2019-02-27T13:36:43.856Z,16.11
2019-02-27T13:39:13.191Z,16.25
2019-02-27T13:41:45.540Z,16.33
2019-02-27T13:44:13.639Z,16.45
2019-02-27T13:46:42.954Z,16.56
2019-02-27T13:49:14.000Z,16.64
2019-02-27T13:51:43.361Z,16.77
2019-02-27T13:54:12.726Z,16.88
2019-02-27T13:56:42.153Z,16.95
2019-02-27T13:59:11.760Z,17.03
2019-02-27T14:01:41.099Z,17.12
2019-02-27T14:04:10.441Z,17.23
2019-02-27T14:06:42.853Z,17.34
2019-02-27T14:09:10.855Z,17.40
2019-02-27T14:11:40.191Z,17.49
2019-02-27T14:14:09.571Z,17.56
2019-02-27T14:16:38.905Z,17.63
2019-02-27T14:19:08.262Z,17.71
2019-02-27T14:21:39.569Z,17.79
2019-02-27T14:24:08.717Z,17.89
2019-02-27T14:26:38.279Z,17.97
2019-02-27T14:29:09.117Z,18.04
2019-02-27T14:31:40.105Z,18.14
2019-02-27T14:34:09.563Z,18.21
2019-02-27T14:36:39.324Z,18.28
2019-02-27T14:39:12.510Z,18.34
2019-02-27T14:41:41.861Z,18.44
2019-02-27T14:44:11.175Z,18.50
2019-02-27T14:46:41.936Z,18.54
2019-02-27T14:49:13.843Z,18.61
2019-02-27T14:51:43.402Z,18.69
2019-02-27T14:54:13.778Z,18.76
2019-02-27T14:56:43.236Z,18.84
2019-02-27T14:59:12.827Z,18.91
2019-02-27T15:01:42.276Z,18.95
2019-02-27T15:04:11.596Z,19.02
2019-02-27T15:06:40.926Z,19.08
2019-02-27T15:09:10.401Z,19.14
2019-02-27T15:11:39.971Z,19.19
2019-02-27T15:14:09.563Z,19.22
2019-02-27T15:16:38.995Z,19.28
2019-02-27T15:19:08.424Z,19.33
2019-02-27T15:21:38.015Z,19.41
2019-02-27T15:24:10.517Z,19.42
2019-02-27T15:26:45.169Z,19.47
2019-02-27T15:29:11.078Z,19.52
2019-02-27T15:31:40.423Z,19.57
2019-02-27T15:34:12.110Z,19.51
2019-02-27T15:36:40.835Z,19.53
2019-02-27T15:39:11.816Z,19.60
2019-02-27T15:41:41.140Z,19.63
2019-02-27T15:44:10.485Z,19.69
2019-02-27T15:46:40.287Z,19.71
2019-02-27T15:49:12.821Z,19.69
2019-02-27T15:51:40.781Z,19.70
2019-02-27T15:54:10.523Z,19.71
2019-02-27T15:56:42.008Z,19.72
2019-02-27T15:59:11.037Z,19.74
2019-02-27T16:01:41.522Z,19.75
2019-02-27T16:04:10.847Z,19.68
2019-02-27T16:06:40.687Z,19.62
2019-02-27T16:09:10.628Z,19.56
2019-02-27T16:11:39.962Z,19.49
2019-02-27T16:14:10.295Z,19.40
2019-02-27T16:16:40.811Z,19.20
2019-02-27T16:19:10.812Z,19.03
2019-02-27T16:21:40.930Z,18.83
2019-02-27T16:24:10.304Z,18.66
2019-02-27T16:26:39.624Z,18.57
2019-02-27T16:29:08.950Z,18.49
2019-02-27T16:31:39.982Z,18.36
2019-02-27T16:34:09.371Z,18.28
2019-02-27T16:36:41.617Z,18.19
2019-02-27T16:39:11.341Z,18.14
2019-02-27T16:41:40.727Z,18.01
2019-02-27T16:44:11.140Z,17.94
2019-02-27T16:46:44.576Z,17.88
2019-02-27T16:49:11.833Z,17.80
2019-02-27T16:51:42.950Z,17.74
2019-02-27T16:54:13.302Z,17.70
2019-02-27T16:56:46.563Z,17.63
2019-02-27T16:59:13.760Z,17.54
2019-02-27T17:01:43.103Z,17.46
2019-02-27T17:04:12.459Z,17.39
2019-02-27T17:06:43.292Z,17.33
2019-02-27T17:09:13.348Z,17.18
2019-02-27T17:11:42.765Z,17.04
2019-02-27T17:14:12.134Z,16.90
2019-02-27T17:16:44.634Z,16.72
2019-02-27T17:19:12.727Z,16.54
2019-02-27T17:21:42.109Z,16.35
2019-02-27T17:24:11.430Z,16.18
2019-02-27T17:26:40.763Z,16.01
2019-02-27T17:29:10.115Z,15.83
2019-02-27T17:31:48.929Z,15.67
2019-02-27T17:34:13.668Z,15.48
2019-02-27T17:36:43.175Z,15.33
2019-02-27T17:39:12.506Z,15.17
2019-02-27T17:41:44.748Z,15.02
2019-02-27T17:44:13.001Z,14.85
2019-02-27T17:46:42.320Z,14.67
2019-02-27T17:49:11.654Z,14.55
2019-02-27T17:51:42.120Z,14.39
2019-02-27T17:54:11.494Z,14.28
2019-02-27T17:56:40.864Z,14.09
2019-02-27T17:59:10.230Z,14.01
2019-02-27T18:01:39.618Z,13.90
2019-02-27T18:04:08.952Z,13.79
2019-02-27T18:06:38.302Z,13.66
2019-02-27T18:09:08.598Z,13.57
2019-02-27T18:11:37.966Z,13.48
2019-02-27T18:14:09.890Z,13.39
2019-02-27T18:16:38.390Z,13.31
2019-02-27T18:19:07.901Z,13.24
2019-02-27T18:21:37.229Z,13.16
2019-02-27T18:24:06.864Z,13.09
2019-02-27T18:26:36.222Z,13.01
2019-02-27T18:29:07.730Z,12.93
2019-02-27T18:31:36.854Z,12.86
2019-02-27T18:34:06.201Z,12.78
2019-02-27T18:36:42.595Z,12.72
2019-02-27T18:39:07.805Z,12.68
2019-02-27T18:41:39.748Z,12.62
2019-02-27T18:44:09.210Z,12.56
2019-02-27T18:46:38.549Z,12.51
2019-02-27T18:49:07.904Z,12.46
2019-02-27T18:51:37.248Z,12.40
2019-02-27T18:54:06.627Z,12.39
2019-02-27T18:56:36.960Z,12.31
2019-02-27T18:59:07.083Z,12.30
2019-02-27T19:01:36.451Z,12.22
2019-02-27T19:04:06.585Z,12.21
2019-02-27T19:06:36.352Z,12.14
2019-02-27T19:09:06.954Z,12.14
2019-02-27T19:11:36.576Z,12.05
2019-02-27T19:14:06.478Z,12.05
2019-02-27T19:16:38.426Z,12.02
2019-02-27T19:19:07.870Z,11.99
2019-02-27T19:21:37.432Z,11.94
2019-02-27T19:24:06.792Z,11.89
2019-02-27T19:26:36.243Z,11.85
2019-02-27T19:29:05.850Z,11.85
2019-02-27T19:31:35.440Z,11.79
2019-02-27T19:34:07.442Z,11.79
2019-02-27T19:36:36.030Z,11.71
2019-02-27T19:39:07.260Z,11.71
2019-02-27T19:41:39.539Z,11.68
2019-02-27T19:44:08.087Z,11.60
2019-02-27T19:46:37.456Z,11.56
2019-02-27T19:49:06.796Z,11.53
2019-02-27T19:51:36.138Z,11.53
2019-02-27T19:54:05.546Z,11.50
2019-02-27T19:56:35.543Z,11.42
2019-02-27T19:59:05.660Z,11.38
2019-02-27T20:01:36.095Z,11.38
2019-02-27T20:04:09.047Z,11.32
2019-02-27T20:06:38.454Z,11.32
2019-02-27T20:09:09.075Z,11.28
2019-02-27T20:11:40.298Z,11.25
2019-02-27T20:14:09.993Z,11.20
2019-02-27T20:16:39.427Z,11.13
2019-02-27T20:19:32.773Z,11.13
2019-02-27T20:22:02.113Z,11.09
2019-02-27T20:24:32.409Z,11.09
2019-02-27T20:27:02.600Z,11.06
2019-02-27T20:29:32.065Z,11.03
2019-02-27T20:32:01.873Z,10.99
2019-02-27T20:34:31.240Z,10.95
2019-02-27T20:37:03.262Z,10.93
2019-02-27T20:39:31.677Z,10.90
2019-02-27T20:42:01.048Z,10.84
2019-02-27T20:44:30.390Z,10.82
2019-02-27T20:46:59.855Z,10.81
2019-02-27T20:49:29.206Z,10.74
2019-02-27T20:51:58.548Z,10.74
2019-02-27T20:54:27.904Z,10.69
2019-02-27T20:56:57.303Z,10.69
2019-02-27T20:59:26.632Z,10.61
2019-02-27T21:01:56.037Z,10.59
2019-02-27T21:04:25.427Z,10.59
2019-02-27T21:06:54.751Z,10.57
2019-02-27T21:09:24.080Z,10.57
2019-02-27T21:11:54.867Z,10.54
2019-02-27T21:14:24.284Z,10.54
2019-02-27T21:16:53.558Z,10.54
2019-02-27T21:19:22.903Z,10.52
2019-02-27T21:21:54.419Z,10.52
2019-02-27T21:24:23.475Z,10.51
2019-02-27T21:26:54.155Z,10.49
2019-02-27T21:29:23.638Z,10.48
2019-02-27T21:31:53.026Z,10.44
2019-02-27T21:34:22.369Z,10.41
2019-02-27T21:36:51.704Z,10.39
2019-02-27T21:39:22.545Z,10.36
2019-02-27T21:41:53.295Z,10.30
2019-02-27T21:44:25.706Z,10.25
2019-02-27T21:46:54.859Z,10.21
2019-02-27T21:49:25.182Z,10.19
2019-02-27T21:51:54.560Z,10.19
2019-02-27T21:54:23.916Z,10.15
2019-02-27T21:56:55.110Z,10.13
2019-02-27T21:59:24.335Z,10.08
2019-02-27T22:01:56.288Z,10.00
2019-02-27T22:04:24.832Z,10.00
2019-02-27T22:06:54.268Z,9.95
2019-02-27T22:09:23.662Z,9.95
2019-02-27T22:11:52.977Z,9.96
2019-02-27T22:14:22.300Z,9.95
2019-02-27T22:16:51.642Z,9.94
2019-02-27T22:19:20.963Z,9.91
2019-02-27T22:21:50.336Z,9.90
2019-02-27T22:24:20.988Z,9.89
2019-02-27T22:26:50.886Z,9.87
2019-02-27T22:29:20.226Z,9.86
2019-02-27T22:31:49.578Z,9.85
2019-02-27T22:34:18.912Z,9.85
2019-02-27T22:36:48.255Z,9.83
2019-02-27T22:39:17.683Z,9.81
2019-02-27T22:41:47.038Z,9.78
2019-02-27T22:44:16.354Z,9.75
2019-02-27T22:46:47.854Z,9.72
2019-02-27T22:49:16.771Z,9.70
2019-02-27T22:51:48.322Z,9.68
2019-02-27T22:54:17.191Z,9.68
2019-02-27T22:56:50.050Z,9.67
2019-02-27T22:59:17.598Z,9.66
2019-02-27T23:01:51.064Z,9.65
2019-02-27T23:04:20.474Z,9.61
2019-02-27T23:06:51.293Z,9.60
2019-02-27T23:11:53.761Z,9.64
2019-02-27T23:14:23.063Z,9.61
2019-02-27T23:16:52.538Z,9.61
2019-02-27T23:19:22.041Z,9.61
2019-02-27T23:21:51.394Z,9.58
2019-02-27T23:24:20.740Z,9.57
2019-02-27T23:26:54.321Z,9.56
2019-02-27T23:29:21.274Z,9.55
2019-02-27T23:31:50.609Z,9.55
2019-02-27T23:34:19.959Z,9.50
2019-02-27T23:36:49.287Z,9.47
2019-02-27T23:39:18.635Z,9.44
2019-02-27T23:41:47.966Z,9.40
2019-02-27T23:44:17.322Z,9.35
2019-02-27T23:46:51.334Z,9.32
2019-02-27T23:49:17.867Z,9.26
2019-02-27T23:51:48.409Z,9.22
2019-02-27T23:54:18.059Z,9.22
2019-02-27T23:56:47.421Z,9.21
2019-02-27T23:59:16.743Z,9.21
